Time;durP1;ratioP1;P1;durP2;ratioP2;P2;SDS_P1;SDS_P2;PMS_P1;PMS_P2;Temp;Humidity;BMP_temperature;BMP_pressure;BME280_temperature;BME280_humidity;BME280_pressure;Samples;Min_cycle;Max_cycle;Signal;HPM_P1;HPM_P2
2022/03/25 00:01:15;;;;;;;29.38;16.23;;;;;;;10.92;43.03;99531.44;4914709;29;20115;-49
2022/03/25 00:03:41;;;;;;;26.50;16.67;;;;;;;10.70;43.23;99538.41;4916115;29;20526;-49
2022/03/25 00:06:08;;;;;;;24.30;14.70;;;;;;;10.46;43.78;99534.22;4915948;29;20104;-48
2022/03/25 00:08:34;;;;;;;19.67;16.02;;;;;;;10.33;44.28;99534.84;4915760;29;20039;-48
2022/03/25 00:11:00;;;;;;;21.17;16.75;;;;;;;10.48;44.23;99534.03;4914533;29;20028;-49
2022/03/25 00:13:26;;;;;;;27.25;18.95;;;;;;;10.59;44.14;99538.88;4914547;29;20070;-48
2022/03/25 00:15:52;;;;;;;23.45;16.33;;;;;;;10.89;43.57;99534.44;4915784;29;20024;-49
2022/03/25 00:18:18;;;;;;;23.58;16.80;;;;;;;10.95;43.21;99523.22;4914491;29;20032;-49
2022/03/25 00:20:45;;;;;;;33.88;17.52;;;;;;;10.89;43.41;99531.00;4914412;29;20027;-49
2022/03/25 00:23:11;;;;;;;28.45;15.73;;;;;;;10.86;43.27;99529.53;4915490;29;20055;-49
2022/03/25 00:25:37;;;;;;;27.95;15.60;;;;;;;10.69;43.58;99528.91;4914385;29;20028;-48
2022/03/25 00:28:03;;;;;;;30.80;22.40;;;;;;;10.48;44.17;99532.22;4915401;29;20038;-49
2022/03/25 00:30:30;;;;;;;21.42;14.95;;;;;;;10.55;44.16;99533.16;4915624;29;20032;-48
2022/03/25 00:32:55;;;;;;;23.30;15.00;;;;;;;10.67;43.52;99528.28;4915642;29;20029;-50
2022/03/25 00:35:21;;;;;;;19.38;14.07;;;;;;;10.64;43.60;99533.06;4915569;29;20035;-48
2022/03/25 00:37:47;;;;;;;20.23;15.00;;;;;;;10.44;44.01;99530.94;4915597;29;20020;-48
2022/03/25 00:40:13;;;;;;;25.08;14.63;;;;;;;10.40;44.72;99534.94;4915536;29;20021;-48
2022/03/25 00:42:40;;;;;;;23.23;13.48;;;;;;;10.49;45.71;99528.63;4915560;29;20424;-47
2022/03/25 00:45:07;;;;;;;18.80;13.40;;;;;;;10.64;44.49;99528.63;4915571;29;20024;-49
2022/03/25 00:47:32;;;;;;;22.80;14.05;;;;;;;10.50;44.01;99530.28;4915556;29;20036;-49
2022/03/25 00:49:58;;;;;;;21.85;14.25;;;;;;;10.44;44.13;99530.94;4914153;29;20035;-49
2022/03/25 00:52:24;;;;;;;18.80;13.50;;;;;;;10.46;44.25;99530.78;4915445;29;20028;-48
2022/03/25 00:54:50;;;;;;;24.73;15.55;;;;;;;10.54;44.39;99534.16;4914156;29;20399;-48
2022/03/25 00:57:19;;;;;;;25.33;14.48;;;;;;;10.44;43.99;99528.34;4915436;29;20024;-49
2022/03/25 00:59:46;;;;;;;27.55;21.77;;;;;;;10.32;44.29;99532.38;4915357;29;20028;-48
2022/03/25 01:02:11;;;;;;;23.50;16.25;;;;;;;10.13;44.80;99529.22;4915368;29;20028;-49
2022/03/25 01:04:38;;;;;;;22.90;14.57;;;;;;;10.13;44.70;99523.19;4914044;29;20119;-49
2022/03/25 01:07:04;;;;;;;23.88;15.30;;;;;;;10.32;44.93;99527.13;4915330;29;20558;-49
2022/03/25 01:09:30;;;;;;;22.17;14.65;;;;;;;10.37;44.48;99520.38;4915297;29;20020;-49
2022/03/25 01:11:56;;;;;;;21.90;14.95;;;;;;;10.41;44.31;99520.03;4915233;29;20131;-48
2022/03/25 01:14:21;;;;;;;22.63;16.63;;;;;;;10.33;44.01;99518.28;4915235;29;20031;-48
2022/03/25 01:16:48;;;;;;;26.38;15.18;;;;;;;10.09;44.71;99525.34;4915242;29;20038;-49
2022/03/25 01:19:14;;;;;;;24.20;15.35;;;;;;;10.03;45.27;99522.59;4913913;29;20028;-48
2022/03/25 01:21:40;;;;;;;20.95;14.38;;;;;;;10.06;45.59;99522.25;4915176;29;20035;-49
2022/03/25 01:24:06;;;;;;;22.25;14.48;;;;;;;10.16;45.08;99517.56;4915028;29;20048;-49
2022/03/25 01:26:32;;;;;;;18.73;14.38;;;;;;;10.15;44.90;99510.69;4915126;29;20052;-48
2022/03/25 01:28:58;;;;;;;20.45;12.18;;;;;;;10.06;45.18;99519.63;4913805;29;20112;-48
2022/03/25 01:31:24;;;;;;;26.65;16.73;;;;;;;10.02;46.01;99515.72;4915094;29;20024;-47
2022/03/25 01:33:50;;;;;;;40.00;30.33;;;;;;;10.05;45.41;99515.38;4915069;29;20024;-48
2022/03/25 01:36:16;;;;;;;25.35;19.00;;;;;;;10.10;45.70;99513.03;4913718;29;20024;-49
2022/03/25 01:38:42;;;;;;;42.03;32.75;;;;;;;10.06;45.72;99517.00;4915099;29;20148;-48
2022/03/25 01:41:08;;;;;;;26.75;20.73;;;;;;;9.94;45.63;99519.22;4917026;29;20027;-46
2022/03/25 01:43:34;;;;;;;25.90;15.98;;;;;;;9.92;45.73;99514.16;4917096;29;20028;-47
2022/03/25 01:46:00;;;;;;;22.35;13.32;;;;;;;9.97;45.85;99509.19;4918378;29;20447;-49
2022/03/25 01:48:26;;;;;;;16.08;12.43;;;;;;;9.95;45.34;99515.63;4918228;29;20028;-49
2022/03/25 01:50:52;;;;;;;18.65;15.13;;;;;;;9.87;45.79;99507.81;4918257;29;20024;-48
2022/03/25 01:53:26;;;;;;;22.00;13.30;;;;;;;9.92;45.84;99508.09;4917019;29;20521;-48
2022/03/25 01:55:57;;;;;;;28.23;13.30;;;;;;;9.83;44.96;99507.34;4916928;29;20051;-49
2022/03/25 01:58:25;;;;;;;19.55;13.10;;;;;;;9.60;45.51;99507.34;4918165;29;20039;-48
2022/03/25 02:00:52;;;;;;;21.45;14.45;;;;;;;9.49;45.82;99499.88;4918107;29;20104;-49
2022/03/25 02:03:19;;;;;;;17.90;13.70;;;;;;;9.41;46.16;99505.97;4918029;29;20032;-49
2022/03/25 02:05:46;;;;;;;16.88;12.63;;;;;;;9.40;46.66;99499.91;4918025;29;20553;-48
2022/03/25 02:08:13;;;;;;;21.27;13.63;;;;;;;9.29;46.89;99505.53;4917941;29;20028;-48
2022/03/25 02:10:39;;;;;;;17.30;13.00;;;;;;;9.16;46.93;99513.16;4917920;29;20028;-48
2022/03/25 02:13:06;;;;;;;19.13;14.52;;;;;;;9.11;47.34;99508.41;4917901;29;20020;-48
2022/03/25 02:15:38;;;;;;;19.30;16.08;;;;;;;9.10;47.72;99513.81;4917767;29;20024;-48
2022/03/25 02:18:05;;;;;;;22.23;15.65;;;;;;;8.99;47.51;99507.97;4917841;29;20024;-48
2022/03/25 02:20:33;;;;;;;21.40;13.20;;;;;;;8.89;47.35;99504.72;4917712;29;20514;-48
2022/03/25 02:22:59;;;;;;;21.50;13.73;;;;;;;8.85;47.98;99503.41;4916205;29;20063;-48
2022/03/25 02:25:26;;;;;;;20.23;13.35;;;;;;;8.69;48.08;99500.84;4917680;29;20387;-48
2022/03/25 02:27:53;;;;;;;18.95;13.73;;;;;;;8.78;48.61;99505.09;4917586;29;20031;-47
2022/03/25 02:30:20;;;;;;;20.75;14.45;;;;;;;8.70;48.00;99502.50;4917592;29;20028;-48
2022/03/25 02:32:46;;;;;;;25.42;13.45;;;;;;;8.62;48.11;99502.53;4917581;29;20020;-48
2022/03/25 02:35:12;;;;;;;21.60;14.85;;;;;;;8.52;49.09;99498.28;4917480;29;20552;-47
2022/03/25 02:37:38;;;;;;;23.50;14.57;;;;;;;8.67;48.48;99493.19;4917478;29;20140;-48
2022/03/25 02:40:04;;;;;;;19.30;12.88;;;;;;;8.86;48.82;99496.41;4916122;29;20040;-48
2022/03/25 02:42:30;;;;;;;23.65;13.88;;;;;;;8.94;48.26;99493.75;4917396;29;20474;-49
2022/03/25 02:44:55;;;;;;;20.35;12.02;;;;;;;8.78;48.61;99494.63;4917315;29;20115;-48
2022/03/25 02:47:21;;;;;;;16.65;13.35;;;;;;;8.65;48.40;99487.28;4917288;29;20443;-49
2022/03/25 02:49:47;;;;;;;26.92;14.95;;;;;;;8.60;48.87;99498.25;4915844;29;20024;-48
2022/03/25 02:52:13;;;;;;;15.32;11.52;;;;;;;8.85;48.43;99503.41;4916982;29;20032;-48
2022/03/25 02:54:39;;;;;;;18.00;11.77;;;;;;;8.97;48.34;99496.84;4917203;29;20032;-48
2022/03/25 02:57:05;;;;;;;19.45;12.25;;;;;;;8.86;47.96;99507.69;4917101;29;20024;-48
2022/03/25 02:59:31;;;;;;;17.20;12.95;;;;;;;8.71;48.11;99494.50;4917018;29;20028;-48
2022/03/25 03:01:57;;;;;;;17.98;12.57;;;;;;;8.73;48.06;99494.31;4917025;29;20398;-48
2022/03/25 03:04:23;;;;;;;19.00;13.32;;;;;;;8.90;48.30;99500.31;4915676;29;20020;-48
2022/03/25 03:06:49;;;;;;;21.92;14.10;;;;;;;8.84;47.48;99496.56;4916793;29;20040;-48
2022/03/25 03:09:14;;;;;;;20.42;13.48;;;;;;;8.71;48.16;99488.41;4916858;29;20028;-47
2022/03/25 03:11:40;;;;;;;19.60;13.57;;;;;;;8.58;48.00;99496.81;4916816;29;20028;-48
2022/03/25 03:14:06;;;;;;;18.63;12.23;;;;;;;8.42;48.13;99497.66;4916769;29;20390;-48
2022/03/25 03:16:32;;;;;;;18.38;11.95;;;;;;;8.38;48.85;99494.50;4915423;29;20451;-48
2022/03/25 03:18:57;;;;;;;17.75;12.20;;;;;;;8.42;48.76;99495.03;4916725;29;20024;-49
2022/03/25 03:21:27;;;;;;;18.42;12.73;;;;;;;8.45;48.74;99488.66;4916650;29;20063;-48
2022/03/25 03:23:53;;;;;;;18.67;12.65;;;;;;;8.59;48.33;99478.34;4916360;29;20047;-48
2022/03/25 03:26:19;;;;;;;17.33;12.20;;;;;;;8.66;48.16;99486.31;4916792;29;20032;-48
2022/03/25 03:28:46;;;;;;;18.88;12.77;;;;;;;8.62;48.30;99482.41;4916770;29;20028;-48
2022/03/25 03:31:12;;;;;;;20.80;12.70;;;;;;;8.64;48.58;99477.81;4915146;29;20046;-48
2022/03/25 03:33:38;;;;;;;17.90;12.23;;;;;;;8.77;47.32;99477.28;4916557;29;20039;-48
2022/03/25 03:36:04;;;;;;;21.05;12.50;;;;;;;8.65;47.88;99483.88;4916428;29;20610;-47
2022/03/25 03:38:30;;;;;;;19.58;13.80;;;;;;;8.38;48.63;99484.06;4915043;29;20047;-48
2022/03/25 03:40:56;;;;;;;20.30;12.65;;;;;;;8.42;48.97;99487.19;4916318;29;20020;-48
2022/03/25 03:43:22;;;;;;;17.70;11.40;;;;;;;8.51;48.69;99488.81;4916282;29;20024;-48
2022/03/25 03:45:47;;;;;;;15.38;11.57;;;;;;;8.69;48.07;99480.75;4916255;29;20028;-49
2022/03/25 03:48:13;;;;;;;25.10;12.40;;;;;;;8.85;47.62;99479.88;4916190;29;20060;-48
2022/03/25 03:50:39;;;;;;;14.82;11.02;;;;;;;8.96;46.98;99479.50;4916161;29;20398;-48
2022/03/25 03:53:06;;;;;;;17.50;11.45;;;;;;;8.89;47.30;99478.53;4914835;29;20410;-48
2022/03/25 03:55:33;;;;;;;21.92;13.07;;;;;;;8.86;47.56;99472.84;4916112;29;20435;-47
2022/03/25 03:57:58;;;;;;;21.80;11.32;;;;;;;8.83;47.18;99478.41;4916076;29;20036;-47
2022/03/25 04:00:24;;;;;;;17.13;11.70;;;;;;;8.82;47.25;99480.22;4914663;29;20376;-48
2022/03/25 04:02:50;;;;;;;14.52;10.90;;;;;;;8.77;47.50;99480.72;4915587;29;20032;-48
2022/03/25 04:05:16;;;;;;;17.85;10.60;;;;;;;8.61;47.47;99478.13;4914622;29;20048;-48
2022/03/25 04:07:48;;;;;;;14.93;11.07;;;;;;;8.46;48.17;99478.03;4915909;29;20032;-48
2022/03/25 04:10:16;;;;;;;16.33;11.30;;;;;;;8.27;48.36;99484.41;4914442;29;20401;-48
2022/03/25 04:12:42;;;;;;;19.23;12.52;;;;;;;8.09;48.58;99487.22;4914563;29;20024;-49
2022/03/25 04:15:10;;;;;;;17.13;10.82;;;;;;;8.07;49.32;99490.94;4914477;29;20062;-48
2022/03/25 04:17:40;;;;;;;21.88;10.93;;;;;;;8.26;49.31;99492.41;4914505;29;20059;-49
2022/03/25 04:20:08;;;;;;;15.98;11.35;;;;;;;8.48;48.00;99491.75;4915747;29;20368;-48
2022/03/25 04:22:33;;;;;;;15.57;11.05;;;;;;;8.24;48.02;99492.56;4914246;29;20054;-48
2022/03/25 04:25:00;;;;;;;16.75;11.13;;;;;;;8.24;48.73;99499.63;4915748;29;20028;-49
2022/03/25 04:27:26;;;;;;;21.50;11.23;;;;;;;8.47;48.16;99490.13;4914393;29;20020;-48
2022/03/25 04:29:52;;;;;;;20.25;11.00;;;;;;;8.61;47.88;99493.84;4915662;29;20099;-48
2022/03/25 04:32:17;;;;;;;15.70;10.30;;;;;;;8.66;47.34;99488.94;4914332;29;20491;-47
2022/03/25 04:34:43;;;;;;;18.75;11.10;;;;;;;8.74;47.87;99498.56;4915590;29;20406;-47
2022/03/25 04:37:09;;;;;;;18.02;10.13;;;;;;;8.78;47.45;99495.44;4915854;29;20032;-49
2022/03/25 04:39:37;;;;;;;15.07;10.38;;;;;;;8.51;46.95;99501.91;4915544;29;20503;-48
2022/03/25 04:42:03;;;;;;;16.30;10.63;;;;;;;8.40;47.55;99494.34;4915562;29;20028;-48
2022/03/25 04:44:29;;;;;;;16.42;12.48;;;;;;;8.22;47.76;99496.34;4915530;29;20032;-48
2022/03/25 04:46:56;;;;;;;21.08;13.30;;;;;;;7.93;48.49;99493.25;4914221;29;20123;-48
2022/03/25 04:49:22;;;;;;;16.55;11.25;;;;;;;7.70;49.27;99493.06;4915483;29;20039;-48
2022/03/25 04:51:48;;;;;;;18.73;11.57;;;;;;;7.56;49.89;99501.53;4915452;29;20107;-48
2022/03/25 04:54:14;;;;;;;16.85;10.00;;;;;;;7.65;49.94;99502.38;4914115;29;20473;-48
2022/03/25 04:56:40;;;;;;;18.45;10.73;;;;;;;7.83;49.93;99494.38;4915442;29;20035;-49
2022/03/25 04:59:06;;;;;;;16.00;11.40;;;;;;;8.01;48.75;99497.66;4914329;29;20036;-48
2022/03/25 05:01:32;;;;;;;25.48;12.35;;;;;;;7.99;49.05;99497.81;4915336;29;20395;-47
2022/03/25 05:03:58;;;;;;;14.45;9.57;;;;;;;7.88;48.95;99498.13;4915390;29;20032;-48
2022/03/25 05:06:24;;;;;;;17.02;10.60;;;;;;;7.82;49.80;99497.97;4914039;29;20402;-48
2022/03/25 05:08:49;;;;;;;14.38;9.95;;;;;;;7.79;49.05;99497.31;4915268;29;20032;-49
2022/03/25 05:11:15;;;;;;;21.85;11.90;;;;;;;7.87;50.61;99498.28;4915288;29;20107;-48
2022/03/25 05:13:41;;;;;;;19.27;10.88;;;;;;;7.96;49.63;99505.97;4913978;29;20398;-50
2022/03/25 05:16:06;;;;;;;17.65;10.45;;;;;;;7.96;48.93;99502.56;4917407;29;20032;-48
2022/03/25 05:18:32;;;;;;;24.95;13.38;;;;;;;7.97;49.10;99505.00;4918844;29;20494;-49
2022/03/25 05:21:00;;;;;;;17.15;10.77;;;;;;;8.02;48.94;99507.13;4918817;29;20020;-49
2022/03/25 05:23:25;;;;;;;18.40;11.63;;;;;;;8.08;48.90;99505.66;4918610;29;20050;-48
2022/03/25 05:25:51;;;;;;;16.77;10.80;;;;;;;8.08;49.21;99514.31;4917496;29;20020;-48
2022/03/25 05:28:17;;;;;;;22.95;11.95;;;;;;;8.35;48.74;99514.94;4917358;29;20035;-48
2022/03/25 05:30:42;;;;;;;17.35;10.35;;;;;;;8.37;47.35;99512.97;4918705;29;20101;-48
2022/03/25 05:33:08;;;;;;;17.38;10.15;;;;;;;8.29;47.95;99513.00;4917331;29;20570;-48
2022/03/25 05:35:34;;;;;;;17.65;10.75;;;;;;;8.36;48.43;99506.13;4918665;29;20020;-49
2022/03/25 05:38:00;;;;;;;17.60;11.32;;;;;;;8.45;47.84;99513.03;4918663;29;20031;-48
2022/03/25 05:40:27;;;;;;;18.38;10.68;;;;;;;8.50;47.57;99513.34;4917212;29;20067;-48
2022/03/25 05:42:54;;;;;;;28.48;11.90;;;;;;;8.54;47.48;99508.59;4918518;29;20031;-48
2022/03/25 05:45:22;;;;;;;21.00;10.77;;;;;;;8.66;47.24;99507.25;4918389;29;20040;-49
2022/03/25 05:47:47;;;;;;;17.27;10.10;;;;;;;8.85;47.23;99505.22;4917170;29;20048;-49
2022/03/25 05:50:14;;;;;;;17.85;10.57;;;;;;;9.01;46.63;99513.03;4917226;29;20070;-48
2022/03/25 05:52:41;;;;;;;21.20;11.30;;;;;;;9.08;46.23;99513.19;4917032;29;20060;-48
2022/03/25 05:55:08;;;;;;;21.23;10.85;;;;;;;9.13;46.03;99514.28;4916898;29;20533;-48
2022/03/25 05:57:34;;;;;;;17.65;11.70;;;;;;;9.04;45.85;99511.88;4918268;29;20089;-48
2022/03/25 06:00:01;;;;;;;30.08;12.13;;;;;;;8.93;46.90;99520.91;4918128;29;20030;-49
2022/03/25 06:02:27;;;;;;;22.10;10.43;;;;;;;9.04;46.26;99511.88;4918122;29;20080;-48
2022/03/25 06:04:53;;;;;;;14.52;10.65;;;;;;;9.16;46.28;99521.00;4916795;29;20028;-48
2022/03/25 06:07:19;;;;;;;20.85;10.98;;;;;;;9.14;45.94;99512.50;4916717;29;20044;-48
2022/03/25 06:09:45;;;;;;;26.92;18.50;;;;;;;9.14;46.45;99513.31;4917934;29;20028;-48
2022/03/25 06:12:11;;;;;;;21.10;12.15;;;;;;;9.10;45.98;99519.06;4916637;29;20035;-49
2022/03/25 06:14:38;;;;;;;19.88;11.98;;;;;;;9.05;46.35;99518.75;4917930;29;20047;-48
2022/03/25 06:17:05;;;;;;;16.60;10.95;;;;;;;9.20;45.89;99523.09;4917847;29;20028;-49
2022/03/25 06:19:32;;;;;;;18.80;10.95;;;;;;;9.44;45.31;99517.91;4917858;29;20384;-48
2022/03/25 06:21:58;;;;;;;24.77;12.13;;;;;;;9.70;44.33;99523.66;4916501;29;20432;-48
2022/03/25 06:24:24;;;;;;;17.20;11.35;;;;;;;9.80;44.54;99526.06;4916234;29;20048;-48
2022/03/25 06:26:50;;;;;;;18.50;12.23;;;;;;;10.07;43.97;99524.69;4917245;29;20051;-48
2022/03/25 06:29:17;;;;;;;19.90;12.05;;;;;;;10.32;44.34;99524.50;4916283;29;20513;-48
2022/03/25 06:31:42;;;;;;;19.17;10.88;;;;;;;10.82;43.21;99530.09;4917611;29;20027;-48
2022/03/25 06:34:08;;;;;;;25.15;13.45;;;;;;;11.34;43.21;99526.53;4917561;29;20058;-49
2022/03/25 06:36:34;;;;;;;22.38;12.35;;;;;;;11.96;41.46;99525.97;4917510;29;20491;-49
2022/03/25 06:39:00;;;;;;;21.27;11.65;;;;;;;12.27;40.68;99535.34;4917446;29;20040;-49
2022/03/25 06:41:25;;;;;;;28.63;13.02;;;;;;;12.83;39.89;99525.81;4917396;29;20111;-49
2022/03/25 06:43:51;;;;;;;23.35;12.18;;;;;;;13.16;39.33;99526.81;4917391;29;20028;-49
2022/03/25 06:46:18;;;;;;;33.95;14.27;;;;;;;13.74;38.51;99525.59;4916025;29;20084;-49
2022/03/25 06:48:44;;;;;;;30.13;13.80;;;;;;;14.41;36.66;99513.25;4917190;29;20035;-49
2022/03/25 06:51:10;;;;;;;25.77;13.55;;;;;;;14.82;35.57;99522.75;4917214;29;20059;-49
2022/03/25 06:53:36;;;;;;;19.67;12.55;;;;;;;15.10;35.01;99521.66;4917273;29;20035;-49
2022/03/25 06:56:04;;;;;;;23.60;12.40;;;;;;;15.69;34.57;99517.09;4915831;29;20028;-49
2022/03/25 06:58:31;;;;;;;46.88;15.52;;;;;;;16.44;34.22;99524.28;4917104;29;20096;-49
2022/03/25 07:00:57;;;;;;;37.92;12.98;;;;;;;17.03;32.60;99517.59;4916991;29;20024;-50
2022/03/25 07:03:23;;;;;;;66.18;15.85;;;;;;;17.46;32.34;99521.16;4915776;29;20406;-49
2022/03/25 07:05:52;;;;;;;39.83;14.55;;;;;;;18.18;31.89;99515.84;4915593;29;20544;-49
2022/03/25 07:08:21;;;;;;;36.17;15.35;;;;;;;18.83;30.80;99511.44;4916847;29;20031;-49
2022/03/25 07:10:48;;;;;;;35.92;13.73;;;;;;;19.60;29.51;99515.59;4916835;29;20042;-49
2022/03/25 07:13:14;;;;;;;34.08;12.55;;;;;;;20.19;28.61;99515.28;4916749;29;20031;-50
2022/03/25 07:15:40;;;;;;;38.58;12.00;;;;;;;20.42;27.32;99519.63;4916844;29;20016;-49
2022/03/25 07:18:06;;;;;;;23.70;11.45;;;;;;;20.45;26.99;99513.81;4916727;29;20028;-49
2022/03/25 07:20:32;;;;;;;43.05;14.75;;;;;;;20.67;27.37;99520.03;4916660;29;20131;-50
2022/03/25 07:22:58;;;;;;;26.67;10.32;;;;;;;21.29;26.25;99516.25;4899386;29;20048;-50
2022/03/25 07:25:27;;;;;;;36.10;12.05;;;;;;;21.71;24.88;99512.16;4916528;29;20040;-49
2022/03/25 07:27:53;;;;;;;21.65;10.20;;;;;;;21.79;25.01;99509.00;4916609;29;20108;-50
2022/03/25 07:30:19;;;;;;;17.30;11.18;;;;;;;21.90;24.55;99509.94;4916459;29;20032;-50
2022/03/25 07:32:46;;;;;;;22.65;10.10;;;;;;;21.80;24.77;99507.97;4915344;29;20529;-49
2022/03/25 07:35:13;;;;;;;17.05;9.85;;;;;;;21.73;24.58;99518.88;4916395;29;20032;-49
2022/03/25 07:37:40;;;;;;;27.33;9.13;;;;;;;21.72;24.52;99514.56;4898929;29;20024;-49
2022/03/25 07:40:11;;;;;;;24.33;11.13;;;;;;;22.03;24.46;99514.03;4915263;29;20109;-50
2022/03/25 07:42:38;;;;;;;21.13;9.55;;;;;;;22.88;23.42;99509.50;4915204;29;20043;-50
2022/03/25 07:45:05;;;;;;;16.95;9.95;;;;;;;23.76;22.69;99504.41;4916222;29;20050;-49
2022/03/25 07:47:32;;;;;;;16.98;9.82;;;;;;;24.47;21.96;99507.06;4916281;29;20148;-49
2022/03/25 07:50:00;;;;;;;22.42;10.95;;;;;;;25.07;21.42;99506.34;4916365;29;20028;-49
2022/03/25 07:52:26;;;;;;;31.52;11.60;;;;;;;25.61;20.69;99507.41;4915185;29;20043;-49
2022/03/25 07:54:51;;;;;;;36.72;10.73;;;;;;;25.95;20.39;99501.28;4916013;29;20487;-50
2022/03/25 07:57:17;;;;;;;37.05;10.30;;;;;;;26.30;19.96;99500.16;4916133;29;20031;-50
2022/03/25 07:59:43;;;;;;;20.10;10.60;;;;;;;26.09;19.61;99497.63;4916067;29;20028;-50
2022/03/25 08:02:11;;;;;;;30.55;11.55;;;;;;;26.00;19.67;99496.66;4915968;29;20028;-50
2022/03/25 08:04:37;;;;;;;32.47;12.35;;;;;;;24.94;20.56;99501.59;4915920;29;20032;-50
2022/03/25 08:07:03;;;;;;;25.33;10.57;;;;;;;25.05;20.80;99503.94;4914655;29;20029;-50
2022/03/25 08:09:29;;;;;;;28.30;12.30;;;;;;;24.11;21.38;99507.13;4915838;29;20431;-50
2022/03/25 08:11:55;;;;;;;41.00;12.95;;;;;;;23.98;21.75;99507.66;4915851;29;20024;-50
2022/03/25 08:14:21;;;;;;;29.02;11.27;;;;;;;24.43;20.79;99507.88;4915851;29;20051;-50
2022/03/25 08:16:47;;;;;;;35.13;12.75;;;;;;;25.39;20.40;99505.13;4915812;29;20372;-50
2022/03/25 08:19:13;;;;;;;19.33;12.70;;;;;;;26.19;19.89;99510.19;4914467;29;20086;-50
2022/03/25 08:21:39;;;;;;;23.45;12.85;;;;;;;26.17;20.19;99506.19;4914481;29;20031;-50
2022/03/25 08:29:36;;;;;;;35.40;13.35;;;;;;;26.83;19.63;99507.41;4915643;29;20031;-50
2022/03/25 08:32:03;;;;;;;35.17;12.75;;;;;;;26.87;19.94;99503.84;4915831;29;20459;-49
2022/03/25 08:34:28;;;;;;;32.20;12.23;;;;;;;27.45;19.24;99502.03;4915651;29;20025;-49
2022/03/25 08:36:54;;;;;;;23.65;12.57;;;;;;;27.24;19.61;99504.22;4915601;29;20380;-49
2022/03/25 08:39:22;;;;;;;32.75;11.77;;;;;;;26.85;20.02;99502.53;4915576;29;20031;-49
2022/03/25 08:41:48;;;;;;;27.17;12.18;;;;;;;27.24;19.77;99504.22;4915434;29;20031;-50
2022/03/25 08:44:15;;;;;;;19.73;11.95;;;;;;;27.07;19.58;99499.28;4915515;29;20028;-49
2022/03/25 08:46:41;;;;;;;19.40;11.93;;;;;;;26.93;20.17;99504.59;4915513;29;20032;-50
2022/03/25 08:49:07;;;;;;;31.00;20.48;;;;;;;27.28;19.53;99505.22;4916107;29;20039;-51
2022/03/25 08:51:33;;;;;;;18.77;12.50;;;;;;;27.63;19.23;99511.22;4918084;29;20031;-50
2022/03/25 08:53:59;;;;;;;26.25;15.95;;;;;;;27.89;18.54;99514.34;4919358;29;20469;-49
2022/03/25 08:56:25;;;;;;;33.35;18.73;;;;;;;28.40;17.39;99501.84;4917965;29;20422;-50
2022/03/25 08:58:58;;;;;;;22.75;10.23;;;;;;;28.67;17.48;99504.59;4919223;29;20024;-50
2022/03/25 09:01:28;;;;;;;19.17;10.27;;;;;;;28.64;16.58;99513.28;4917847;29;20100;-49
2022/03/25 09:03:54;;;;;;;19.77;10.15;;;;;;;29.10;16.45;99503.44;4917906;29;20028;-50
2022/03/25 09:06:20;;;;;;;26.27;11.07;;;;;;;29.25;16.51;99510.44;4919335;29;20434;-50
2022/03/25 09:08:46;;;;;;;24.45;11.70;;;;;;;28.93;17.27;99512.16;4919011;29;20035;-50
2022/03/25 09:11:12;;;;;;;15.95;9.65;;;;;;;29.58;16.71;99515.63;4919052;29;20491;-51
2022/03/25 09:13:40;;;;;;;16.45;10.77;;;;;;;30.44;15.33;99507.28;4918982;29;20055;-50
2022/03/25 09:16:07;;;;;;;19.55;11.63;;;;;;;30.86;14.92;99510.44;4918834;29;20046;-51
2022/03/25 09:18:33;;;;;;;24.52;10.05;;;;;;;31.20;14.75;99505.44;4918823;29;20391;-52
2022/03/25 09:20:58;;;;;;;16.15;9.93;;;;;;;31.23;15.00;99505.63;4918873;29;20035;-51
2022/03/25 09:23:24;;;;;;;15.13;9.32;;;;;;;31.18;14.52;99507.69;4917324;29;20052;-50
2022/03/25 09:25:53;;;;;;;20.90;9.63;;;;;;;31.04;14.84;99497.75;4918639;29;20076;-50
2022/03/25 09:28:19;;;;;;;16.90;10.15;;;;;;;31.37;15.17;99499.22;4918664;29;20024;-50
2022/03/25 09:30:45;;;;;;;19.80;9.38;;;;;;;31.47;14.53;99493.50;4918626;29;20028;-50
2022/03/25 09:33:11;;;;;;;17.90;9.55;;;;;;;31.58;14.32;99499.41;4918620;29;20107;-50
2022/03/25 09:35:42;;;;;;;15.35;8.32;;;;;;;31.59;14.49;99501.81;4918637;29;20127;-51
2022/03/25 09:38:09;;;;;;;23.45;10.82;;;;;;;31.47;14.55;99498.13;4918593;29;20055;-51
2022/03/25 09:40:35;;;;;;;14.90;9.93;;;;;;;31.51;14.66;99493.66;4918535;29;20070;-51
2022/03/25 09:43:01;;;;;;;13.90;8.63;;;;;;;31.73;13.93;99487.25;4918702;29;20106;-50
2022/03/25 09:45:30;;;;;;;17.65;8.15;;;;;;;32.10;13.55;99493.91;4918445;29;20067;-50
2022/03/25 09:47:56;;;;;;;14.40;8.68;;;;;;;32.72;12.83;99489.03;4918421;29;20058;-51
2022/03/25 09:50:24;;;;;;;16.63;8.75;;;;;;;32.72;13.07;99481.69;4918293;29;20064;-50
2022/03/25 09:52:51;;;;;;;29.98;10.23;;;;;;;32.88;13.05;99484.63;4918303;29;20418;-50
2022/03/25 09:55:18;;;;;;;28.73;9.95;;;;;;;33.38;13.06;99485.72;4918265;29;20027;-52
2022/03/25 09:57:44;;;;;;;34.05;10.60;;;;;;;33.49;12.86;99475.22;4918195;29;20025;-49
2022/03/25 10:00:17;;;;;;;20.73;8.95;;;;;;;34.00;13.21;99481.28;4918039;29;20043;-50
2022/03/25 10:02:45;;;;;;;30.52;9.93;;;;;;;34.24;12.77;99475.09;4917502;29;20079;-51
2022/03/25 10:05:18;;;;;;;19.80;8.93;;;;;;;34.36;12.01;99475.09;4918329;29;20059;-51
2022/03/25 10:07:47;;;;;;;18.80;9.35;;;;;;;33.54;12.66;99470.34;4916896;29;20032;-51
2022/03/25 10:10:17;;;;;;;20.42;9.35;;;;;;;33.91;13.04;99470.50;4917971;29;20032;-50
2022/03/25 10:12:48;;;;;;;25.00;10.10;;;;;;;34.55;12.61;99468.28;4918001;29;20035;-50
2022/03/25 10:15:18;;;;;;;22.10;9.77;;;;;;;34.79;12.31;99464.75;4918004;29;20032;-49
2022/03/25 10:17:53;;;;;;;12.13;9.43;;;;;;;35.03;12.24;99461.19;4917874;29;20111;-51
2022/03/25 10:20:22;;;;;;;13.80;8.77;;;;;;;35.34;11.87;99448.84;4917763;29;20054;-50
2022/03/25 10:23:19;;;;;;;24.33;9.27;;;;;;;35.43;11.79;99452.19;4917467;29;20056;-50
2022/03/25 10:25:56;;;;;;;18.95;10.20;;;;;;;34.55;12.41;99451.94;4917767;29;20043;-50
2022/03/25 10:28:28;;;;;;;17.95;9.73;;;;;;;33.61;12.99;99456.22;4917689;29;20036;-51
2022/03/25 10:31:02;;;;;;;14.15;9.38;;;;;;;33.22;13.02;99453.69;4917615;29;20036;-50
2022/03/25 10:33:30;;;;;;;17.98;10.07;;;;;;;33.87;12.82;99464.13;4916450;29;20032;-51
2022/03/25 10:36:08;;;;;;;14.75;9.13;;;;;;;34.65;12.20;99445.22;4917502;29;20107;-50
2022/03/25 10:38:44;;;;;;;16.65;9.88;;;;;;;35.02;12.15;99454.16;4917500;29;20047;-51
2022/03/25 10:41:12;;;;;;;13.10;9.20;;;;;;;34.98;11.87;99443.13;4916075;29;20101;-50
2022/03/25 10:44:02;;;;;;;21.50;10.45;;;;;;;34.98;12.17;99445.06;4917394;29;20036;-51
2022/03/25 10:46:46;;;;;;;20.15;9.13;;;;;;;35.13;12.22;99441.59;4917337;29;20030;-51
2022/03/25 10:49:18;;;;;;;12.80;9.73;;;;;;;35.13;11.84;99446.25;4917259;29;20024;-51
2022/03/25 10:51:52;;;;;;;16.73;9.05;;;;;;;34.99;11.99;99441.19;4917282;29;20043;-50
2022/03/25 10:54:21;;;;;;;;;;;;;;;35.38;12.05;99436.88;4916557;29;20107;-51
2022/03/25 10:56:48;;;;;;;11.35;9.15;;;;;;;35.15;11.67;99444.81;4915859;29;19915;-53
2022/03/25 10:59:34;;;;;;;11.68;9.85;;;;;;;35.11;12.09;99434.91;4917153;29;20028;-51
2022/03/25 11:02:02;;;;;;;21.80;9.65;;;;;;;35.05;11.61;99428.88;4917060;29;20421;-51
2022/03/25 11:04:29;;;;;;;14.75;9.75;;;;;;;34.98;12.13;99437.69;4917056;29;20031;-50
2022/03/25 11:06:56;;;;;;;21.05;10.27;;;;;;;34.68;12.23;99439.91;4915767;29;20036;-50
2022/03/25 11:09:24;;;;;;;19.65;10.88;;;;;;;34.19;12.03;99438.00;4916802;29;20107;-51
2022/03/25 11:11:52;;;;;;;21.23;9.73;;;;;;;34.25;11.97;99440.47;4916807;29;20060;-51
2022/03/25 11:14:19;;;;;;;15.20;10.13;;;;;;;34.80;11.69;99430.91;4916816;29;20060;-50
2022/03/25 11:16:58;;;;;;;14.48;10.50;;;;;;;35.08;11.71;99422.75;4916734;29;20042;-51
2022/03/25 11:19:24;;;;;;;14.80;11.98;;;;;;;35.11;11.71;99413.88;4916848;29;20112;-50
2022/03/25 11:21:52;;;;;;;13.70;10.27;;;;;;;34.96;11.92;99407.22;4916676;29;20131;-51
2022/03/25 11:24:50;;;;;;;15.52;11.30;;;;;;;34.86;12.21;99412.38;4916399;29;20079;-51
2022/03/25 11:27:38;;;;;;;18.10;12.25;;;;;;;34.44;12.31;99409.94;4914870;29;20047;-51